createdAt,value
2023-03-21T00:03:35.289Z,9.10
2023-03-21T00:07:38.305Z,9.10
2023-03-21T00:11:41.163Z,9.10
2023-03-21T00:16:07.993Z,9.10
2023-03-21T00:20:15.709Z,9.10
2023-03-21T00:24:18.556Z,9.10
2023-03-21T00:28:22.176Z,9.10
2023-03-21T00:32:25.043Z,9.10
2023-03-21T00:36:29.210Z,9.10
2023-03-21T00:40:37.700Z,9.10
2023-03-21T00:44:45.830Z,9.10
2023-03-21T00:48:48.527Z,9.10
2023-03-21T00:52:52.636Z,9.10
2023-03-21T00:56:55.486Z,9.20
2023-03-21T01:00:59.349Z,9.20
2023-03-21T01:05:02.495Z,9.30
2023-03-21T01:09:11.116Z,9.30
2023-03-21T01:13:16.929Z,9.20
2023-03-21T01:17:19.623Z,9.20
2023-03-21T01:21:22.562Z,9.20
2023-03-21T01:25:26.594Z,9.10
2023-03-21T01:29:29.374Z,9.10
2023-03-21T01:33:37.338Z,9.10
2023-03-21T01:37:40.198Z,9.10
2023-03-21T01:41:45.035Z,9.10
2023-03-21T01:46:25.330Z,9.10
2023-03-21T01:50:37.328Z,9.10
2023-03-21T01:54:59.053Z,9.10
2023-03-21T01:59:09.293Z,9.10
2023-03-21T02:03:50.567Z,9.10
2023-03-21T02:08:38.281Z,9.10
2023-03-21T02:12:46.341Z,9.20
2023-03-21T02:17:01.950Z,9.20
2023-03-21T02:21:37.985Z,9.20
2023-03-21T02:26:08.070Z,9.20
2023-03-21T02:30:51.677Z,9.20
2023-03-21T02:35:16.228Z,9.20
2023-03-21T02:39:27.032Z,9.20
2023-03-21T02:43:38.331Z,9.20
2023-03-21T02:47:47.523Z,9.20
2023-03-21T02:51:51.894Z,9.20
2023-03-21T02:55:57.803Z,9.20
2023-03-21T03:00:14.111Z,9.20
2023-03-21T03:04:20.884Z,9.20
2023-03-21T03:08:45.052Z,9.20
2023-03-21T03:13:02.788Z,9.20
2023-03-21T03:17:17.956Z,9.30
2023-03-21T03:21:27.182Z,9.30
2023-03-21T03:25:42.941Z,9.30
2023-03-21T03:29:51.558Z,9.30
2023-03-21T03:34:03.061Z,9.30
2023-03-21T03:38:09.572Z,9.30
2023-03-21T03:42:28.087Z,9.30
2023-03-21T03:46:46.689Z,9.40
2023-03-21T03:50:55.305Z,9.40
2023-03-21T03:55:08.490Z,9.30
2023-03-21T03:59:19.272Z,9.30
2023-03-21T04:03:47.590Z,9.30
2023-03-21T04:07:51.261Z,9.30
2023-03-21T04:12:02.994Z,9.30
2023-03-21T04:16:07.677Z,9.30
2023-03-21T04:20:18.671Z,9.30
2023-03-21T04:24:26.860Z,9.40
2023-03-21T04:28:29.922Z,9.40
2023-03-21T04:32:56.758Z,9.40
2023-03-21T04:37:03.438Z,9.40
2023-03-21T04:41:08.595Z,9.40
2023-03-21T04:45:12.295Z,9.40
2023-03-21T04:49:15.325Z,9.40
2023-03-21T04:53:20.867Z,9.40
2023-03-21T04:57:23.665Z,9.40
2023-03-21T05:01:30.634Z,9.40
2023-03-21T05:05:33.673Z,9.50
2023-03-21T05:09:38.250Z,9.50
2023-03-21T05:13:41.510Z,9.50
2023-03-21T05:17:44.370Z,9.50
2023-03-21T05:21:48.734Z,9.50
2023-03-21T05:25:57.350Z,9.50
2023-03-21T05:30:13.921Z,9.50
2023-03-21T05:34:17.292Z,9.60
2023-03-21T05:38:21.070Z,9.50
2023-03-21T05:42:31.683Z,9.50
2023-03-21T05:46:35.493Z,9.60
2023-03-21T05:50:41.255Z,9.60
2023-03-21T05:54:52.226Z,9.60
2023-03-21T05:58:59.969Z,9.60
2023-03-21T06:03:03.601Z,9.70
2023-03-21T06:07:16.876Z,9.70
2023-03-21T06:11:26.812Z,9.70
2023-03-21T06:15:47.176Z,9.70
2023-03-21T06:19:54.875Z,9.80
2023-03-21T06:24:03.556Z,9.90
2023-03-21T06:28:06.668Z,9.90
2023-03-21T06:32:16.108Z,10.00
2023-03-21T06:36:21.174Z,10.00
2023-03-21T06:40:25.378Z,10.10
2023-03-21T06:44:29.979Z,10.10
2023-03-21T06:48:44.398Z,10.10
2023-03-21T06:52:48.193Z,10.20
2023-03-21T06:56:51.331Z,10.20
2023-03-21T07:01:00.767Z,10.30
2023-03-21T07:05:05.849Z,10.40
2023-03-21T07:09:08.687Z,10.40
2023-03-21T07:13:11.697Z,10.50
2023-03-21T07:17:18.648Z,10.50
2023-03-21T07:21:22.833Z,10.60
2023-03-21T07:25:26.057Z,10.60
2023-03-21T07:29:29.169Z,10.70
2023-03-21T07:33:33.424Z,10.80
2023-03-21T07:37:39.115Z,10.90
2023-03-21T07:41:42.998Z,11.00
2023-03-21T07:45:58.421Z,11.00
2023-03-21T07:50:04.358Z,11.10
2023-03-21T07:54:08.622Z,11.20
2023-03-21T07:58:11.364Z,11.30
2023-03-21T08:02:16.556Z,11.40
2023-03-21T08:06:19.319Z,11.50
2023-03-21T08:10:23.635Z,11.60
2023-03-21T08:14:26.360Z,11.60
2023-03-21T08:18:29.124Z,11.60
2023-03-21T08:22:31.820Z,11.70
2023-03-21T08:26:36.096Z,11.70
2023-03-21T08:30:39.493Z,11.70
2023-03-21T08:34:42.635Z,11.70
2023-03-21T08:38:46.069Z,11.70
2023-03-21T08:42:50.220Z,11.70
2023-03-21T08:46:53.197Z,11.70
2023-03-21T08:50:56.272Z,11.80
2023-03-21T08:54:59.020Z,11.80
2023-03-21T08:59:03.235Z,11.80
2023-03-21T09:03:06.012Z,11.80
2023-03-21T09:07:11.111Z,11.70
2023-03-21T09:11:13.946Z,11.70
2023-03-21T09:15:20.175Z,11.70
2023-03-21T09:19:24.166Z,11.60
2023-03-21T09:23:27.485Z,11.60
2023-03-21T09:27:30.473Z,11.60
2023-03-21T09:31:34.764Z,11.60
2023-03-21T09:35:37.933Z,11.70
2023-03-21T09:39:41.140Z,11.70
2023-03-21T09:43:55.937Z,11.70
2023-03-21T09:48:00.065Z,11.70
2023-03-21T09:52:06.447Z,11.70
2023-03-21T09:56:12.532Z,11.70
2023-03-21T10:00:22.685Z,11.60
2023-03-21T10:04:27.700Z,11.60
2023-03-21T10:08:36.406Z,11.60
2023-03-21T10:12:39.124Z,11.50
2023-03-21T10:16:44.705Z,11.40
2023-03-21T10:20:49.084Z,11.40
2023-03-21T10:24:51.875Z,11.40
2023-03-21T10:28:56.576Z,11.40
2023-03-21T10:33:05.128Z,11.40
2023-03-21T10:37:09.387Z,11.50
2023-03-21T10:41:12.585Z,11.50
2023-03-21T10:45:18.732Z,11.50
2023-03-21T10:49:22.470Z,11.50
2023-03-21T10:53:33.003Z,11.50
2023-03-21T10:57:37.986Z,11.40
2023-03-21T11:01:43.927Z,11.50
2023-03-21T11:05:47.220Z,11.50
2023-03-21T11:09:55.643Z,11.60
2023-03-21T11:14:00.675Z,11.70
2023-03-21T11:18:15.579Z,11.60
2023-03-21T11:22:21.212Z,11.70
2023-03-21T11:26:29.159Z,11.70
2023-03-21T11:30:32.947Z,11.70
2023-03-21T11:34:47.018Z,11.70
2023-03-21T11:38:52.168Z,11.70
2023-03-21T11:42:58.035Z,11.70
2023-03-21T11:47:01.126Z,11.70
2023-03-21T11:51:08.038Z,11.70
2023-03-21T11:55:36.934Z,11.70
2023-03-21T11:59:47.259Z,11.70
2023-03-21T12:04:04.942Z,11.70
2023-03-21T12:08:18.192Z,11.70
2023-03-21T12:12:38.924Z,11.60
2023-03-21T12:16:57.524Z,11.60
2023-03-21T12:21:04.721Z,11.50
2023-03-21T12:25:12.357Z,11.50
2023-03-21T12:29:29.951Z,11.50
2023-03-21T12:33:50.891Z,11.60
2023-03-21T12:38:08.008Z,11.60
2023-03-21T12:42:47.211Z,11.60
2023-03-21T12:46:54.593Z,11.60
2023-03-21T12:51:02.733Z,11.60
2023-03-21T12:55:15.442Z,11.60
2023-03-21T12:59:26.576Z,11.60
2023-03-21T13:03:40.295Z,11.50
2023-03-21T13:07:49.574Z,11.60
2023-03-21T13:11:55.216Z,11.60
2023-03-21T13:16:07.799Z,11.60
2023-03-21T13:20:21.430Z,11.70
2023-03-21T13:24:33.752Z,11.70
2023-03-21T13:28:39.324Z,11.80
2023-03-21T13:32:43.714Z,11.90
2023-03-21T13:36:48.984Z,11.90
2023-03-21T13:40:59.202Z,11.90
2023-03-21T13:45:06.209Z,11.90
2023-03-21T13:49:26.517Z,11.90
2023-03-21T13:53:33.508Z,11.90
2023-03-21T13:57:40.752Z,11.90
2023-03-21T14:01:58.629Z,12.00
2023-03-21T14:06:01.888Z,12.10
2023-03-21T14:10:09.451Z,12.10
2023-03-21T14:14:13.887Z,12.10
2023-03-21T14:18:28.134Z,12.20
2023-03-21T14:22:38.177Z,12.20
2023-03-21T14:26:44.241Z,12.30
2023-03-21T14:30:53.385Z,12.30
2023-03-21T14:34:57.265Z,12.30
2023-03-21T14:39:07.121Z,12.30
2023-03-21T14:43:12.974Z,12.40
2023-03-21T14:47:22.427Z,12.40
2023-03-21T14:51:25.235Z,12.40
2023-03-21T14:55:28.311Z,12.40
2023-03-21T14:59:34.943Z,12.30
2023-03-21T15:03:39.070Z,12.20
2023-03-21T15:07:41.879Z,12.20
2023-03-21T15:11:49.902Z,12.10
2023-03-21T15:15:54.983Z,12.00
2023-03-21T15:19:59.076Z,12.00
2023-03-21T15:24:08.436Z,11.90
2023-03-21T15:28:14.710Z,11.80
2023-03-21T15:32:20.416Z,11.70
2023-03-21T15:36:28.146Z,11.70
2023-03-21T15:40:32.530Z,11.70
2023-03-21T15:44:36.761Z,11.60
2023-03-21T15:48:39.458Z,11.60
2023-03-21T15:52:43.838Z,11.60
2023-03-21T15:56:51.550Z,11.60
2023-03-21T16:00:56.029Z,11.60
2023-03-21T16:05:04.073Z,11.60
2023-03-21T16:09:13.975Z,11.60
2023-03-21T16:13:17.461Z,11.60
2023-03-21T16:17:33.890Z,11.50
2023-03-21T16:21:38.249Z,11.50
2023-03-21T16:25:45.720Z,11.50
2023-03-21T16:29:48.485Z,11.40
2023-03-21T16:33:51.992Z,11.40
2023-03-21T16:37:54.706Z,11.40
2023-03-21T16:42:00.702Z,11.40
2023-03-21T16:46:03.778Z,11.40
2023-03-21T16:50:26.688Z,11.50
2023-03-21T16:54:29.437Z,11.50
2023-03-21T16:58:34.546Z,11.60
2023-03-21T17:02:37.913Z,11.60
2023-03-21T17:06:45.483Z,11.70
2023-03-21T17:10:48.190Z,11.70
2023-03-21T17:14:52.240Z,11.60
2023-03-21T17:18:55.146Z,11.50
2023-03-21T17:22:58.523Z,11.50
2023-03-21T17:27:03.357Z,11.40
2023-03-21T17:31:12.684Z,11.30
2023-03-21T17:35:15.612Z,11.20
2023-03-21T17:39:22.681Z,11.20
2023-03-21T17:43:25.554Z,11.10
2023-03-21T17:47:30.968Z,11.10
2023-03-21T17:51:33.723Z,11.10
2023-03-21T17:55:36.881Z,11.10
2023-03-21T17:59:39.648Z,11.00
2023-03-21T18:03:43.743Z,11.00
2023-03-21T18:08:08.711Z,10.90
2023-03-21T18:12:09.707Z,10.90
2023-03-21T18:16:14.855Z,10.90
2023-03-21T18:20:23.750Z,10.90
2023-03-21T18:24:27.277Z,10.90
2023-03-21T18:28:31.024Z,10.80
2023-03-21T18:32:33.969Z,10.80
2023-03-21T18:36:39.371Z,10.70
2023-03-21T18:40:42.446Z,10.70
2023-03-21T18:44:47.830Z,10.60
2023-03-21T18:48:51.805Z,10.60
2023-03-21T18:52:58.188Z,10.60
2023-03-21T19:01:24.138Z,10.60
2023-03-21T19:05:27.396Z,10.60
2023-03-21T19:09:54.776Z,10.60
2023-03-21T19:13:56.435Z,10.50
2023-03-21T19:22:22.553Z,10.50
2023-03-21T19:26:26.747Z,10.60
2023-03-21T19:30:29.612Z,10.60
2023-03-21T19:34:32.403Z,10.60
2023-03-21T19:38:35.633Z,10.60
2023-03-21T19:42:40.465Z,10.50
2023-03-21T19:46:43.318Z,10.60
2023-03-21T19:51:13.864Z,10.60
2023-03-21T19:55:10.711Z,10.60
2023-03-21T19:59:14.864Z,10.60
2023-03-21T20:03:22.437Z,10.70
2023-03-21T20:07:26.024Z,10.70
2023-03-21T20:11:28.817Z,10.80
2023-03-21T20:15:33.054Z,10.80
2023-03-21T20:19:36.070Z,10.90
2023-03-21T20:23:39.007Z,10.90
2023-03-21T20:27:43.323Z,10.90
2023-03-21T20:31:47.476Z,10.90
2023-03-21T20:40:15.876Z,10.80
2023-03-21T20:48:43.674Z,10.80
2023-03-21T20:53:01.241Z,10.80
2023-03-21T20:57:09.089Z,10.80
2023-03-21T21:01:15.518Z,10.90
2023-03-21T21:05:31.481Z,10.90
2023-03-21T21:09:36.849Z,10.90
2023-03-21T21:13:40.633Z,10.90
2023-03-21T21:18:04.665Z,10.80
2023-03-21T21:22:11.488Z,10.80
2023-03-21T21:26:15.025Z,10.60
2023-03-21T21:30:18.657Z,10.60
2023-03-21T21:34:21.733Z,10.60
2023-03-21T21:38:26.673Z,10.60
2023-03-21T21:42:29.653Z,10.60
2023-03-21T21:46:32.695Z,10.60
2023-03-21T21:50:36.730Z,10.70
2023-03-21T21:54:45.510Z,10.60
2023-03-21T21:58:48.499Z,10.60
2023-03-21T22:02:51.767Z,10.50
2023-03-21T22:06:55.280Z,10.40
2023-03-21T22:11:01.248Z,10.40
2023-03-21T22:15:07.120Z,10.40
2023-03-21T22:19:09.925Z,10.40
2023-03-21T22:23:13.505Z,10.40
2023-03-21T22:27:18.152Z,10.40
2023-03-21T22:31:22.436Z,10.50
2023-03-21T22:35:25.881Z,10.50
2023-03-21T22:39:29.216Z,10.50
2023-03-21T22:43:35.316Z,10.50
2023-03-21T22:47:39.949Z,10.60
2023-03-21T22:51:43.817Z,10.60
2023-03-21T22:55:46.856Z,10.60
2023-03-21T22:59:51.707Z,10.60
2023-03-21T23:03:54.446Z,10.60
2023-03-21T23:08:02.763Z,10.60
2023-03-21T23:12:05.745Z,10.50
2023-03-21T23:16:10.606Z,10.50
2023-03-21T23:20:13.950Z,10.50
2023-03-21T23:24:20.486Z,10.40
2023-03-21T23:28:23.779Z,10.40
2023-03-21T23:32:28.413Z,10.40
2023-03-21T23:36:31.601Z,10.30
2023-03-21T23:40:34.660Z,10.30
2023-03-21T23:44:40.455Z,10.20
2023-03-21T23:48:48.170Z,10.20
2023-03-21T23:52:51.242Z,10.30
2023-03-21T23:56:54.244Z,10.30
